createdAt,value
2018-10-06T00:00:00.491Z,30.3
2018-10-06T00:01:02.071Z,30.3
2018-10-06T00:02:03.462Z,29.8
2018-10-06T00:03:04.680Z,31.3
2018-10-06T00:04:06.230Z,30.8
2018-10-06T00:05:07.765Z,30.3
2018-10-06T00:06:09.149Z,30.3
2018-10-06T00:07:10.700Z,30.3
2018-10-06T00:08:12.272Z,30.3
2018-10-06T00:09:13.863Z,30.3
2018-10-06T00:10:15.386Z,30.3
2018-10-06T00:11:16.631Z,30.8
2018-10-06T00:12:18.059Z,30.8
2018-10-06T00:13:19.610Z,30.3
2018-10-06T00:14:21.150Z,31.3
2018-10-06T00:15:22.707Z,30.8
2018-10-06T00:16:24.083Z,30.8
2018-10-06T00:17:25.628Z,30.3
2018-10-06T00:18:26.844Z,30.8
2018-10-06T00:19:28.241Z,30.3
2018-10-06T00:20:29.810Z,30.3
2018-10-06T00:21:31.207Z,30.3
2018-10-06T00:22:32.777Z,30.8
2018-10-06T00:23:34.317Z,30.3
2018-10-06T00:24:35.885Z,29.8
2018-10-06T00:25:37.450Z,30.8
2018-10-06T00:26:38.825Z,30.8
2018-10-06T00:27:40.205Z,30.8
2018-10-06T00:28:41.730Z,30.3
2018-10-06T00:29:43.301Z,29.8
2018-10-06T00:30:44.855Z,30.3
2018-10-06T00:31:46.426Z,30.8
2018-10-06T00:32:47.976Z,30.8
2018-10-06T00:33:49.353Z,30.3
2018-10-06T00:34:50.887Z,30.3
2018-10-06T00:35:52.441Z,29.8
2018-10-06T00:36:53.816Z,30.3
2018-10-06T00:37:55.392Z,30.3
2018-10-06T00:38:56.965Z,30.3
2018-10-06T00:39:58.503Z,29.8
2018-10-06T00:41:00.069Z,30.8
2018-10-06T00:42:01.480Z,29.3
2018-10-06T00:43:03.049Z,30.3
2018-10-06T00:44:04.578Z,29.8
2018-10-06T00:45:06.116Z,29.8
2018-10-06T00:46:07.520Z,30.8
2018-10-06T00:47:09.050Z,30.3
2018-10-06T00:48:10.803Z,29.8
2018-10-06T00:49:12.354Z,29.8
2018-10-06T00:50:13.955Z,29.8
2018-10-06T00:51:15.503Z,30.3
2018-10-06T00:52:17.050Z,30.3
2018-10-06T00:53:18.607Z,30.3
2018-10-06T00:54:20.153Z,29.8
2018-10-06T00:55:21.690Z,29.8
2018-10-06T00:56:23.064Z,30.3
2018-10-06T00:57:24.459Z,29.8
2018-10-06T00:58:25.861Z,29.3
2018-10-06T00:59:27.241Z,30.3
2018-10-06T01:00:28.777Z,29.8
2018-10-06T01:01:30.317Z,30.3
2018-10-06T01:02:31.861Z,29.8
2018-10-06T01:03:33.630Z,29.3
2018-10-06T01:04:35.027Z,30.3
2018-10-06T01:05:36.589Z,30.3
2018-10-06T01:06:37.981Z,30.3
2018-10-06T01:07:39.521Z,29.8
2018-10-06T01:08:40.735Z,27.9
2018-10-06T01:09:42.119Z,25.4
2018-10-06T01:10:43.371Z,24.9
2018-10-06T01:11:59.615Z,24.4
2018-10-06T01:13:00.986Z,25.9
2018-10-06T01:14:02.530Z,27.4
2018-10-06T01:15:04.070Z,28.3
2018-10-06T01:16:05.644Z,30.3
2018-10-06T01:17:07.190Z,30.8
2018-10-06T01:18:08.583Z,32.7
2018-10-06T01:19:10.151Z,33.2
2018-10-06T01:20:11.382Z,33.2
2018-10-06T01:21:12.939Z,34.7
2018-10-06T01:22:14.485Z,35.2
2018-10-06T01:23:16.019Z,36.2
2018-10-06T01:24:17.564Z,36.2
2018-10-06T01:25:19.119Z,36.2
2018-10-06T01:26:20.667Z,37.6
2018-10-06T01:27:21.871Z,37.6
2018-10-06T01:28:23.416Z,37.1
2018-10-06T01:29:24.801Z,36.7
2018-10-06T01:30:26.351Z,37.6
2018-10-06T01:31:28.129Z,37.6
2018-10-06T01:32:29.517Z,38.1
2018-10-06T01:33:31.059Z,37.6
2018-10-06T01:34:32.461Z,38.1
2018-10-06T01:35:33.845Z,38.1
2018-10-06T01:36:35.051Z,38.1
2018-10-06T01:37:36.626Z,37.6
2018-10-06T01:38:38.003Z,38.6
2018-10-06T01:39:39.554Z,38.6
2018-10-06T01:40:41.099Z,38.6
2018-10-06T01:41:42.659Z,38.1
2018-10-06T01:42:43.878Z,38.1
2018-10-06T01:43:45.431Z,39.1
2018-10-06T01:44:46.979Z,37.6
2018-10-06T01:45:48.567Z,39.1
2018-10-06T01:46:50.108Z,39.1
2018-10-06T01:47:51.665Z,40.1
2018-10-06T01:48:53.191Z,39.6
2018-10-06T01:49:54.765Z,39.1
2018-10-06T01:50:56.541Z,38.1
2018-10-06T01:51:58.348Z,38.1
2018-10-06T01:52:59.720Z,39.1
2018-10-06T01:54:01.305Z,39.1
2018-10-06T01:55:02.867Z,38.6
2018-10-06T01:56:04.409Z,39.1
2018-10-06T01:57:05.789Z,39.1
2018-10-06T01:58:07.173Z,39.1
2018-10-06T01:59:08.742Z,39.1
2018-10-06T02:00:10.179Z,39.1
2018-10-06T02:01:11.580Z,39.1
2018-10-06T02:02:12.976Z,39.1
2018-10-06T02:03:14.530Z,39.1
2018-10-06T02:04:16.071Z,39.1
2018-10-06T02:05:17.623Z,39.1
2018-10-06T02:06:19.170Z,38.6
2018-10-06T02:07:20.547Z,38.6
2018-10-06T02:08:21.934Z,38.6
2018-10-06T02:09:23.498Z,38.6
2018-10-06T02:10:24.880Z,39.1
2018-10-06T02:11:26.259Z,38.6
2018-10-06T02:12:27.812Z,39.1
2018-10-06T02:13:29.192Z,37.6
2018-10-06T02:14:30.748Z,38.1
2018-10-06T02:15:32.289Z,38.1
2018-10-06T02:16:33.878Z,38.6
2018-10-06T02:17:35.442Z,37.6
2018-10-06T02:18:36.981Z,38.1
2018-10-06T02:19:38.537Z,38.6
2018-10-06T02:20:40.093Z,39.1
2018-10-06T02:21:41.649Z,38.6
2018-10-06T02:22:43.038Z,38.1
2018-10-06T02:23:44.418Z,38.6
2018-10-06T02:24:45.795Z,38.1
2018-10-06T02:25:47.192Z,38.1
2018-10-06T02:26:48.725Z,38.1
2018-10-06T02:27:50.271Z,37.6
2018-10-06T02:28:51.662Z,38.1
2018-10-06T02:29:53.434Z,37.6
2018-10-06T02:30:54.902Z,37.6
2018-10-06T02:31:56.457Z,38.1
2018-10-06T02:32:58.035Z,38.1
2018-10-06T02:33:59.419Z,38.1
2018-10-06T02:35:00.994Z,37.6
2018-10-06T02:36:02.547Z,37.6
2018-10-06T02:37:04.111Z,37.1
2018-10-06T02:38:05.660Z,37.6
2018-10-06T02:39:07.234Z,37.6
2018-10-06T02:40:08.844Z,38.1
2018-10-06T02:41:10.375Z,38.1
2018-10-06T02:42:11.786Z,37.6
2018-10-06T02:43:13.323Z,37.6
2018-10-06T02:44:14.710Z,37.6
2018-10-06T02:45:16.256Z,38.1
2018-10-06T02:46:17.809Z,37.6
2018-10-06T02:47:19.369Z,37.6
2018-10-06T02:48:20.757Z,37.1
2018-10-06T02:49:22.290Z,37.6
2018-10-06T02:50:23.663Z,37.1
2018-10-06T02:51:25.224Z,37.1
2018-10-06T02:52:26.586Z,37.1
2018-10-06T02:53:28.122Z,37.6
2018-10-06T02:54:29.515Z,38.1
2018-10-06T02:55:30.898Z,38.1
2018-10-06T02:56:32.443Z,36.7
2018-10-06T02:57:33.656Z,37.6
2018-10-06T02:58:35.202Z,37.1
2018-10-06T02:59:36.247Z,36.7
2018-10-06T03:00:37.789Z,37.1
2018-10-06T03:01:39.156Z,37.1
2018-10-06T03:02:40.747Z,37.1
2018-10-06T03:03:42.302Z,37.1
2018-10-06T03:04:43.852Z,37.1
2018-10-06T03:05:45.235Z,37.1
2018-10-06T03:06:46.782Z,37.1
2018-10-06T03:07:48.347Z,37.6
2018-10-06T03:08:49.879Z,37.1
2018-10-06T03:09:51.415Z,37.1
2018-10-06T03:10:52.971Z,37.1
2018-10-06T03:11:54.345Z,37.1
2018-10-06T03:12:55.897Z,38.1
2018-10-06T03:13:57.449Z,37.1
2018-10-06T03:14:58.835Z,36.7
2018-10-06T03:16:00.368Z,37.1
2018-10-06T03:17:01.919Z,36.7
2018-10-06T03:18:03.471Z,37.6
2018-10-06T03:19:05.022Z,37.6
2018-10-06T03:20:06.558Z,37.6
2018-10-06T03:21:08.120Z,36.7
2018-10-06T03:22:09.680Z,38.1
2018-10-06T03:23:11.228Z,38.1
2018-10-06T03:24:12.631Z,37.6
2018-10-06T03:25:14.230Z,37.6
2018-10-06T03:26:15.769Z,38.1
2018-10-06T03:27:17.336Z,38.1
2018-10-06T03:28:18.902Z,38.1
2018-10-06T03:29:20.469Z,38.6
2018-10-06T03:30:22.030Z,38.1
2018-10-06T03:31:23.590Z,38.6
2018-10-06T03:32:24.978Z,39.1
2018-10-06T03:33:26.370Z,39.1
2018-10-06T03:34:27.759Z,39.1
2018-10-06T03:35:29.295Z,38.6
2018-10-06T03:36:30.857Z,39.1
2018-10-06T03:37:32.088Z,39.1
2018-10-06T03:38:33.491Z,38.6
2018-10-06T03:39:35.039Z,38.6
2018-10-06T03:40:36.612Z,39.6
2018-10-06T03:41:38.156Z,39.1
2018-10-06T03:42:39.700Z,39.6
2018-10-06T03:43:41.240Z,38.6
2018-10-06T03:44:42.786Z,39.1
2018-10-06T03:45:44.338Z,39.6
2018-10-06T03:46:45.877Z,39.6
2018-10-06T03:47:47.459Z,39.6
2018-10-06T03:48:49.007Z,40.1
2018-10-06T03:49:50.509Z,39.1
2018-10-06T03:50:52.121Z,39.1
2018-10-06T03:51:53.666Z,39.1
2018-10-06T03:52:55.068Z,38.6
2018-10-06T03:53:56.803Z,39.1
2018-10-06T03:54:58.559Z,38.6
2018-10-06T03:56:00.099Z,39.1
2018-10-06T03:57:01.639Z,38.1
2018-10-06T03:58:03.169Z,39.1
2018-10-06T03:59:04.554Z,39.1
2018-10-06T04:00:06.089Z,38.6
2018-10-06T04:01:07.649Z,38.6
2018-10-06T04:02:09.204Z,38.6
2018-10-06T04:03:10.767Z,38.6
2018-10-06T04:04:12.313Z,39.1
2018-10-06T04:05:13.852Z,39.1
2018-10-06T04:06:15.394Z,38.6
2018-10-06T04:07:16.799Z,38.6
2018-10-06T04:08:18.346Z,38.1
2018-10-06T04:09:19.893Z,38.1
2018-10-06T04:10:21.289Z,38.1
2018-10-06T04:11:22.676Z,39.1
2018-10-06T04:12:24.219Z,39.1
2018-10-06T04:13:25.777Z,38.1
2018-10-06T04:14:27.336Z,38.6
2018-10-06T04:15:28.700Z,38.6
2018-10-06T04:16:30.239Z,38.1
2018-10-06T04:17:31.776Z,37.6
2018-10-06T04:18:33.162Z,38.6
2018-10-06T04:19:34.717Z,38.1
2018-10-06T04:20:36.312Z,38.1
2018-10-06T04:21:37.863Z,38.1
2018-10-06T04:22:39.078Z,37.6
2018-10-06T04:23:40.460Z,38.1
2018-10-06T04:24:42.008Z,38.6
2018-10-06T04:25:43.539Z,38.1
2018-10-06T04:26:45.102Z,37.6
2018-10-06T04:27:46.653Z,38.1
2018-10-06T04:28:48.220Z,38.1
2018-10-06T04:29:49.604Z,38.1
2018-10-06T04:30:51.010Z,38.6
2018-10-06T04:31:52.550Z,38.1
2018-10-06T04:32:54.109Z,37.6
2018-10-06T04:33:55.662Z,38.1
2018-10-06T04:34:57.046Z,37.6
2018-10-06T04:35:58.592Z,38.1
2018-10-06T04:37:00.160Z,37.1
2018-10-06T04:38:01.704Z,38.1
2018-10-06T04:39:03.260Z,37.1
2018-10-06T04:40:04.819Z,37.6
2018-10-06T04:41:06.395Z,37.6
2018-10-06T04:42:07.769Z,37.6
2018-10-06T04:43:09.337Z,37.6
2018-10-06T04:44:10.913Z,36.7
2018-10-06T04:45:12.474Z,37.6
2018-10-06T04:46:14.025Z,37.6
2018-10-06T04:47:15.577Z,37.1
2018-10-06T04:48:16.979Z,37.6
2018-10-06T04:49:18.551Z,37.6
2018-10-06T04:50:20.098Z,37.1
2018-10-06T04:51:21.657Z,37.1
2018-10-06T04:52:23.284Z,37.1
2018-10-06T04:53:24.843Z,37.6
2018-10-06T04:54:26.394Z,37.6
2018-10-06T04:55:27.943Z,37.6
2018-10-06T04:56:29.503Z,37.1
2018-10-06T04:57:31.051Z,37.6
2018-10-06T04:58:32.635Z,37.1
2018-10-06T04:59:34.181Z,36.7
2018-10-06T05:00:35.734Z,36.7
2018-10-06T05:01:36.939Z,37.6
2018-10-06T05:02:38.497Z,37.1
2018-10-06T05:03:40.056Z,36.7
2018-10-06T05:04:41.430Z,37.6
2018-10-06T05:05:42.816Z,37.6
2018-10-06T05:06:44.180Z,37.6
2018-10-06T05:07:45.578Z,37.1
2018-10-06T05:08:47.129Z,37.6
2018-10-06T05:09:48.676Z,36.7
2018-10-06T05:10:50.219Z,37.1
2018-10-06T05:11:51.760Z,37.6
2018-10-06T05:12:53.310Z,37.1
2018-10-06T05:13:54.857Z,37.1
2018-10-06T05:14:56.238Z,37.1
2018-10-06T05:15:57.457Z,37.6
2018-10-06T05:16:58.674Z,37.6
2018-10-06T05:18:00.245Z,37.6
2018-10-06T05:19:01.779Z,37.6
2018-10-06T05:20:03.341Z,38.1
2018-10-06T05:21:04.886Z,38.1
2018-10-06T05:22:06.445Z,38.6
2018-10-06T05:23:07.928Z,39.1
2018-10-06T05:24:09.499Z,38.6
2018-10-06T05:25:11.045Z,38.1
2018-10-06T05:26:12.419Z,39.1
2018-10-06T05:27:13.984Z,39.1
2018-10-06T05:28:15.548Z,39.6
2018-10-06T05:29:17.080Z,39.1
2018-10-06T05:30:18.644Z,39.6
2018-10-06T05:31:20.044Z,39.6
2018-10-06T05:32:21.584Z,39.1
2018-10-06T05:33:22.980Z,38.6
2018-10-06T05:34:24.553Z,39.6
2018-10-06T05:35:26.133Z,39.6
2018-10-06T05:36:27.539Z,39.6
2018-10-06T05:37:29.090Z,39.6
2018-10-06T05:38:30.626Z,40.1
2018-10-06T05:39:32.180Z,38.6
2018-10-06T05:40:33.747Z,39.6
2018-10-06T05:41:35.331Z,39.6
2018-10-06T05:42:36.891Z,39.6
2018-10-06T05:43:38.461Z,39.6
2018-10-06T05:44:39.827Z,39.1
2018-10-06T05:45:41.390Z,39.6
2018-10-06T05:46:42.993Z,39.1
2018-10-06T05:47:44.441Z,39.6
2018-10-06T05:48:45.890Z,38.6
2018-10-06T05:49:47.280Z,39.6
2018-10-06T05:50:48.513Z,39.1
2018-10-06T05:51:50.063Z,40.1
2018-10-06T05:52:51.457Z,39.6
2018-10-06T05:53:52.861Z,40.1
2018-10-06T05:54:54.424Z,39.6
2018-10-06T05:55:55.959Z,39.6
2018-10-06T05:56:57.522Z,39.1
2018-10-06T05:57:58.889Z,38.6
2018-10-06T05:59:00.639Z,39.6
2018-10-06T06:00:02.315Z,39.1
2018-10-06T06:01:03.914Z,39.1
2018-10-06T06:02:05.479Z,39.1
2018-10-06T06:03:07.047Z,38.6
2018-10-06T06:04:08.443Z,38.6
2018-10-06T06:05:10.003Z,38.6
2018-10-06T06:06:11.564Z,39.1
2018-10-06T06:07:12.972Z,38.1
2018-10-06T06:08:14.530Z,39.1
2018-10-06T06:09:16.365Z,38.6
2018-10-06T06:10:17.750Z,39.1
2018-10-06T06:11:18.984Z,38.6
2018-10-06T06:12:20.380Z,38.1
2018-10-06T06:13:21.933Z,38.1
2018-10-06T06:14:23.495Z,38.6
2018-10-06T06:15:25.106Z,38.1
2018-10-06T06:16:26.507Z,37.6
2018-10-06T06:17:27.730Z,38.6
2018-10-06T06:18:29.287Z,38.1
2018-10-06T06:19:30.700Z,38.1
2018-10-06T06:20:32.453Z,38.6
2018-10-06T06:21:34.134Z,38.1
2018-10-06T06:22:35.520Z,38.1
2018-10-06T06:23:36.903Z,38.1
2018-10-06T06:24:38.477Z,37.6
2018-10-06T06:25:39.892Z,38.1
2018-10-06T06:26:41.471Z,37.6
2018-10-06T06:27:43.056Z,38.6
2018-10-06T06:28:44.498Z,38.1
2018-10-06T06:29:45.890Z,38.1
2018-10-06T06:30:47.524Z,37.6
2018-10-06T06:31:49.012Z,38.1
2018-10-06T06:32:50.580Z,37.6
2018-10-06T06:33:52.140Z,37.1
2018-10-06T06:34:53.699Z,38.1
2018-10-06T06:35:55.259Z,37.6
2018-10-06T06:36:56.669Z,37.6
2018-10-06T06:37:58.229Z,37.6
2018-10-06T06:38:59.600Z,37.1
2018-10-06T06:40:01.006Z,37.1
2018-10-06T06:41:02.556Z,36.7
2018-10-06T06:42:03.946Z,38.1
2018-10-06T06:43:05.502Z,38.1
2018-10-06T06:44:07.656Z,37.6
2018-10-06T06:45:09.478Z,37.6
2018-10-06T06:46:11.109Z,37.6
2018-10-06T06:47:12.688Z,37.1
2018-10-06T06:48:14.255Z,37.1
2018-10-06T06:49:15.817Z,38.1
2018-10-06T06:50:17.375Z,37.6
2018-10-06T06:51:18.773Z,37.6
2018-10-06T06:52:20.378Z,36.7
2018-10-06T06:53:21.939Z,37.6
2018-10-06T06:54:23.502Z,37.1
2018-10-06T06:55:25.084Z,37.1
2018-10-06T06:56:26.649Z,37.1
2018-10-06T06:57:28.197Z,38.1
2018-10-06T06:58:29.608Z,37.1
2018-10-06T06:59:31.112Z,36.7
2018-10-06T07:00:32.572Z,37.6
2018-10-06T07:01:34.188Z,37.6
2018-10-06T07:02:35.588Z,37.6
2018-10-06T07:03:37.135Z,36.7
2018-10-06T07:04:38.525Z,37.1
2018-10-06T07:05:40.332Z,37.1
2018-10-06T07:06:42.017Z,37.6
2018-10-06T07:07:43.572Z,36.7
2018-10-06T07:08:44.967Z,37.1
2018-10-06T07:09:46.444Z,37.6
2018-10-06T07:10:48.063Z,37.1
2018-10-06T07:11:49.535Z,36.7
2018-10-06T07:12:50.996Z,37.6
2018-10-06T07:13:52.400Z,37.1
2018-10-06T07:14:53.976Z,36.7
2018-10-06T07:15:55.541Z,37.1
2018-10-06T07:16:57.129Z,37.1
2018-10-06T07:17:58.680Z,37.6
2018-10-06T07:19:00.267Z,37.6
2018-10-06T07:20:01.678Z,38.1
2018-10-06T07:21:03.265Z,38.1
2018-10-06T07:22:04.809Z,37.6
2018-10-06T07:23:06.390Z,38.6
2018-10-06T07:24:07.994Z,38.1
2018-10-06T07:25:09.583Z,38.6
2018-10-06T07:26:11.153Z,38.6
2018-10-06T07:27:12.572Z,38.1
2018-10-06T07:28:14.151Z,38.1
2018-10-06T07:29:15.712Z,38.1
2018-10-06T07:30:17.102Z,38.6
2018-10-06T07:31:18.496Z,38.1
2018-10-06T07:32:20.063Z,38.6
2018-10-06T07:33:21.631Z,39.1
2018-10-06T07:34:23.195Z,39.1
2018-10-06T07:35:24.866Z,39.1
2018-10-06T07:36:26.551Z,39.1
2018-10-06T07:37:28.167Z,39.1
2018-10-06T07:38:29.938Z,38.6
2018-10-06T07:39:31.375Z,39.6
2018-10-06T07:40:32.950Z,38.6
2018-10-06T07:41:34.356Z,39.1
2018-10-06T07:42:35.912Z,39.6
2018-10-06T07:43:37.451Z,39.6
2018-10-06T07:44:39.004Z,39.6
2018-10-06T07:45:40.581Z,39.1
2018-10-06T07:46:42.141Z,39.6
2018-10-06T07:47:43.699Z,39.6
2018-10-06T07:48:44.941Z,40.1
2018-10-06T07:49:46.517Z,39.6
2018-10-06T07:50:48.072Z,39.1
2018-10-06T07:51:49.533Z,38.6
2018-10-06T07:52:50.900Z,39.6
2018-10-06T07:53:52.299Z,39.6
2018-10-06T07:54:53.750Z,39.1
2018-10-06T07:55:55.151Z,39.6
2018-10-06T07:56:56.706Z,38.1
2018-10-06T07:57:58.463Z,39.1
2018-10-06T07:59:00.031Z,38.1
2018-10-06T08:00:01.465Z,39.1
2018-10-06T08:01:03.113Z,39.1
2018-10-06T08:02:04.673Z,39.1
2018-10-06T08:03:06.217Z,38.6
2018-10-06T08:04:07.763Z,38.1
2018-10-06T08:05:09.308Z,39.1
2018-10-06T08:06:10.199Z,38.6
2018-10-06T08:07:11.651Z,39.1
2018-10-06T08:08:13.230Z,38.1
2018-10-06T08:09:14.775Z,38.6
2018-10-06T08:10:16.350Z,38.1
2018-10-06T08:11:17.905Z,37.6
2018-10-06T08:12:19.468Z,39.1
2018-10-06T08:13:21.029Z,38.6
2018-10-06T08:14:22.431Z,39.1
2018-10-06T08:15:24.040Z,39.1
2018-10-06T08:16:25.585Z,38.1
2018-10-06T08:17:27.161Z,37.6
2018-10-06T08:18:28.734Z,38.1
2018-10-06T08:19:30.280Z,37.6
2018-10-06T08:20:31.848Z,37.6
2018-10-06T08:21:33.181Z,38.6
2018-10-06T08:22:34.757Z,37.6
2018-10-06T08:23:36.311Z,37.6
2018-10-06T08:24:38.094Z,37.6
2018-10-06T08:25:39.661Z,37.6
2018-10-06T08:26:41.214Z,38.1
2018-10-06T08:27:42.673Z,38.6
2018-10-06T08:28:44.272Z,38.6
2018-10-06T08:29:45.844Z,38.1
2018-10-06T08:30:47.398Z,38.6
2018-10-06T08:31:48.790Z,37.6
2018-10-06T08:32:50.193Z,38.1
2018-10-06T08:33:51.742Z,37.6
2018-10-06T08:34:53.307Z,38.1
2018-10-06T08:35:54.860Z,36.7
2018-10-06T08:36:56.411Z,36.7
2018-10-06T08:37:57.996Z,37.6
2018-10-06T08:38:59.555Z,38.1
2018-10-06T08:40:01.137Z,37.1
2018-10-06T08:41:02.719Z,38.6
2018-10-06T08:42:04.321Z,37.1
2018-10-06T08:43:05.756Z,37.6
2018-10-06T08:44:07.200Z,37.1
2018-10-06T08:45:08.749Z,37.6
2018-10-06T08:46:10.169Z,38.1
2018-10-06T08:47:11.725Z,37.6
2018-10-06T08:48:13.116Z,36.7
2018-10-06T08:49:14.704Z,37.6
2018-10-06T08:50:16.270Z,37.6
2018-10-06T08:51:17.508Z,37.1
2018-10-06T08:52:19.068Z,37.6
2018-10-06T08:53:20.654Z,36.7
2018-10-06T08:54:22.210Z,37.6
2018-10-06T08:55:23.450Z,37.1
2018-10-06T08:56:24.803Z,37.6
2018-10-06T08:57:26.739Z,37.6
2018-10-06T08:58:28.330Z,37.1
2018-10-06T08:59:29.719Z,37.6
2018-10-06T09:00:31.488Z,37.6
2018-10-06T09:01:33.059Z,37.6
2018-10-06T09:02:34.627Z,37.6
2018-10-06T09:03:36.021Z,38.1
2018-10-06T09:04:37.418Z,38.1
2018-10-06T09:05:38.822Z,38.1
2018-10-06T09:06:40.197Z,38.6
2018-10-06T09:07:41.733Z,37.6
2018-10-06T09:08:43.299Z,40.1
2018-10-06T09:09:44.855Z,38.1
2018-10-06T09:10:46.428Z,38.1
2018-10-06T09:11:48.205Z,38.1
2018-10-06T09:12:49.946Z,38.1
2018-10-06T09:13:51.619Z,39.1
2018-10-06T09:14:53.220Z,39.1
2018-10-06T09:15:54.433Z,39.6
2018-10-06T09:16:55.823Z,39.6
2018-10-06T09:17:57.562Z,38.6
2018-10-06T09:18:59.234Z,39.1
2018-10-06T09:20:00.807Z,39.1
2018-10-06T09:21:02.382Z,38.6
2018-10-06T09:22:03.937Z,39.6
2018-10-06T09:23:05.503Z,39.6
2018-10-06T09:24:07.061Z,39.1
2018-10-06T09:25:08.452Z,39.6
2018-10-06T09:26:09.863Z,39.1
2018-10-06T09:27:11.430Z,40.1
2018-10-06T09:28:13.278Z,40.1
2018-10-06T09:29:15.033Z,39.6
2018-10-06T09:30:16.607Z,39.6
2018-10-06T09:31:18.177Z,39.6
2018-10-06T09:32:19.751Z,39.6
2018-10-06T09:33:21.309Z,40.1
2018-10-06T09:34:22.879Z,39.6
2018-10-06T09:35:24.455Z,39.6
2018-10-06T09:36:26.012Z,39.1
2018-10-06T09:37:27.583Z,39.1
2018-10-06T09:38:28.981Z,39.1
2018-10-06T09:39:30.561Z,39.1
2018-10-06T09:40:32.128Z,39.6
2018-10-06T09:41:33.507Z,39.1
2018-10-06T09:42:35.353Z,39.1
2018-10-06T09:43:37.468Z,39.1
2018-10-06T09:44:39.052Z,39.1
2018-10-06T09:45:40.618Z,39.1
2018-10-06T09:46:42.017Z,38.6
2018-10-06T09:47:43.596Z,38.6
2018-10-06T09:48:45.165Z,39.6
2018-10-06T09:49:46.723Z,38.1
2018-10-06T09:50:48.302Z,38.1
2018-10-06T09:51:49.878Z,38.6
2018-10-06T09:52:51.263Z,39.1
2018-10-06T09:53:53.197Z,38.1
2018-10-06T09:54:54.769Z,39.1
2018-10-06T09:55:56.334Z,38.6
2018-10-06T09:56:57.891Z,38.1
2018-10-06T09:57:59.462Z,38.6
2018-10-06T09:59:01.061Z,38.6
2018-10-06T10:00:02.331Z,38.6
2018-10-06T10:01:03.880Z,38.1
2018-10-06T10:02:05.429Z,38.1
2018-10-06T10:03:06.842Z,38.6
2018-10-06T10:04:08.410Z,38.1
2018-10-06T10:05:09.789Z,38.1
2018-10-06T10:06:11.345Z,38.1
2018-10-06T10:07:12.912Z,38.1
2018-10-06T10:08:14.584Z,38.1
2018-10-06T10:09:16.332Z,37.6
2018-10-06T10:10:17.958Z,38.6
2018-10-06T10:11:19.528Z,37.6
2018-10-06T10:12:20.954Z,38.1
2018-10-06T10:13:22.443Z,38.1
2018-10-06T10:14:24.045Z,38.1
2018-10-06T10:15:25.611Z,37.6
2018-10-06T10:16:27.097Z,38.1
2018-10-06T10:17:29.085Z,38.6
2018-10-06T10:18:31.772Z,38.1
2018-10-06T10:19:33.851Z,37.6
2018-10-06T10:20:35.432Z,38.1
2018-10-06T10:21:36.997Z,38.1
2018-10-06T10:22:39.102Z,37.6
2018-10-06T10:23:41.178Z,37.6
2018-10-06T10:24:42.869Z,37.1
2018-10-06T10:25:44.259Z,37.1
2018-10-06T10:26:45.806Z,38.1
2018-10-06T10:27:47.358Z,38.6
2018-10-06T10:28:49.344Z,36.7
2018-10-06T10:29:51.161Z,37.6
2018-10-06T10:30:52.778Z,37.6
2018-10-06T10:31:54.351Z,38.1
2018-10-06T10:32:55.910Z,37.6
2018-10-06T10:33:57.488Z,37.1
2018-10-06T10:34:58.917Z,37.6
2018-10-06T10:36:00.478Z,37.6
2018-10-06T10:37:02.068Z,37.1
2018-10-06T10:38:03.653Z,37.6
2018-10-06T10:39:05.368Z,37.6
2018-10-06T10:40:07.236Z,37.6
2018-10-06T10:41:08.781Z,38.1
2018-10-06T10:42:10.179Z,38.1
2018-10-06T10:43:11.750Z,38.1
2018-10-06T10:44:13.463Z,38.1
2018-10-06T10:45:14.936Z,38.1
2018-10-06T10:46:16.339Z,39.1
2018-10-06T10:47:17.918Z,39.1
2018-10-06T10:48:19.408Z,37.6
2018-10-06T10:49:21.441Z,38.6
2018-10-06T10:50:23.111Z,38.6
2018-10-06T10:51:24.673Z,39.6
2018-10-06T10:52:26.077Z,39.1
2018-10-06T10:53:27.468Z,39.1
2018-10-06T10:54:29.397Z,39.1
2018-10-06T10:55:31.495Z,40.1
2018-10-06T10:56:33.179Z,39.1
2018-10-06T10:57:35.017Z,39.6
2018-10-06T10:58:36.642Z,40.1
2018-10-06T10:59:38.285Z,39.1
2018-10-06T11:00:40.713Z,39.6
2018-10-06T11:01:42.560Z,39.1
2018-10-06T11:02:44.107Z,39.6
2018-10-06T11:03:45.651Z,40.6
2018-10-06T11:04:47.581Z,40.1
2018-10-06T11:05:49.349Z,39.6
2018-10-06T11:06:50.759Z,40.1
2018-10-06T11:07:52.341Z,39.1
2018-10-06T11:08:53.908Z,39.1
2018-10-06T11:09:55.463Z,39.1
2018-10-06T11:10:57.045Z,39.6
2018-10-06T11:11:58.607Z,40.1
2018-10-06T11:13:00.169Z,40.1
2018-10-06T11:14:01.736Z,40.1
2018-10-06T11:15:03.122Z,39.1
2018-10-06T11:16:04.526Z,39.1
2018-10-06T11:17:06.087Z,40.1
2018-10-06T11:18:07.616Z,39.1
2018-10-06T11:19:09.046Z,39.6
2018-10-06T11:20:10.596Z,39.1
2018-10-06T11:21:12.248Z,39.6
2018-10-06T11:22:13.826Z,39.6
2018-10-06T11:23:15.406Z,39.1
2018-10-06T11:24:16.820Z,40.1
2018-10-06T11:25:18.369Z,39.1
2018-10-06T11:26:19.933Z,39.1
2018-10-06T11:27:21.539Z,39.1
2018-10-06T11:28:22.979Z,39.1
2018-10-06T11:29:24.525Z,39.1
2018-10-06T11:30:26.099Z,38.6
2018-10-06T11:31:27.681Z,39.6
2018-10-06T11:32:29.092Z,39.6
2018-10-06T11:33:30.665Z,38.6
2018-10-06T11:34:32.225Z,38.6
2018-10-06T11:35:33.798Z,38.6
2018-10-06T11:36:35.372Z,38.1
2018-10-06T11:37:37.895Z,38.6
2018-10-06T11:38:39.860Z,39.1
2018-10-06T11:39:41.252Z,39.1
2018-10-06T11:40:42.631Z,38.1
2018-10-06T11:41:43.891Z,39.1
2018-10-06T11:42:45.458Z,38.6
2018-10-06T11:43:47.008Z,38.6
2018-10-06T11:44:48.395Z,38.1
2018-10-06T11:45:49.971Z,37.6
2018-10-06T11:46:51.400Z,38.6
2018-10-06T11:47:52.961Z,37.6
2018-10-06T11:48:54.514Z,38.1
2018-10-06T11:49:56.250Z,38.1
2018-10-06T11:50:58.136Z,38.1
2018-10-06T11:51:59.539Z,37.6
2018-10-06T11:53:00.782Z,38.1
2018-10-06T11:54:02.378Z,39.1
2018-10-06T11:55:03.972Z,37.6
2018-10-06T11:56:05.395Z,38.1
2018-10-06T11:57:06.779Z,38.6
2018-10-06T11:58:08.352Z,38.1
2018-10-06T11:59:09.917Z,38.6
2018-10-06T12:00:12.575Z,37.6
2018-10-06T12:01:13.972Z,37.6
2018-10-06T12:02:15.408Z,37.6
2018-10-06T12:03:16.966Z,37.1
2018-10-06T12:04:18.539Z,37.1
2018-10-06T12:05:20.113Z,37.6
2018-10-06T12:06:21.683Z,38.1
2018-10-06T12:07:23.096Z,38.1
2018-10-06T12:08:24.480Z,37.6
2018-10-06T12:09:26.088Z,38.1
2018-10-06T12:10:27.498Z,37.6
2018-10-06T12:11:28.925Z,37.6
2018-10-06T12:12:30.494Z,37.1
2018-10-06T12:13:32.034Z,37.6
2018-10-06T12:14:33.599Z,37.1
2018-10-06T12:15:35.179Z,37.6
2018-10-06T12:16:36.752Z,37.6
2018-10-06T12:17:38.319Z,37.1
2018-10-06T12:18:39.885Z,37.6
2018-10-06T12:19:41.437Z,38.1
2018-10-06T12:20:43.161Z,38.1
2018-10-06T12:21:44.567Z,38.6
2018-10-06T12:22:46.140Z,37.6
2018-10-06T12:23:47.690Z,38.1
2018-10-06T12:24:49.289Z,38.6
2018-10-06T12:25:50.933Z,39.6
2018-10-06T12:26:52.590Z,39.1
2018-10-06T12:27:54.166Z,37.6
2018-10-06T12:28:55.724Z,39.1
2018-10-06T12:29:57.304Z,38.6
2018-10-06T12:30:58.864Z,38.6
2018-10-06T12:32:00.421Z,39.6
2018-10-06T12:33:01.995Z,38.6
2018-10-06T12:34:03.577Z,39.6
2018-10-06T12:35:05.341Z,40.1
2018-10-06T12:36:07.223Z,40.1
2018-10-06T12:37:08.770Z,39.1
2018-10-06T12:38:10.172Z,39.6
2018-10-06T12:39:11.760Z,39.6
2018-10-06T12:40:13.164Z,39.6
2018-10-06T12:41:14.548Z,39.1
2018-10-06T12:42:16.446Z,40.1
2018-10-06T12:43:18.404Z,39.6
2018-10-06T12:44:19.956Z,39.6
2018-10-06T12:45:21.381Z,39.6
2018-10-06T12:46:22.957Z,39.6
2018-10-06T12:47:24.506Z,40.6
2018-10-06T12:48:26.064Z,38.6
2018-10-06T12:49:27.620Z,39.6
2018-10-06T12:50:28.833Z,39.6
2018-10-06T12:51:30.946Z,39.1
2018-10-06T12:52:32.723Z,39.6
2018-10-06T12:53:34.311Z,39.6
2018-10-06T12:54:35.871Z,39.1
2018-10-06T12:55:37.417Z,39.1
2018-10-06T12:56:39.012Z,39.6
2018-10-06T12:57:40.221Z,39.6
2018-10-06T12:58:41.791Z,39.1
2018-10-06T12:59:43.349Z,39.1
2018-10-06T13:00:44.935Z,39.6
2018-10-06T13:01:46.315Z,39.1
2018-10-06T13:02:47.729Z,39.6
2018-10-06T13:03:49.157Z,39.1
2018-10-06T13:04:50.595Z,39.1
2018-10-06T13:05:52.141Z,39.1
2018-10-06T13:06:53.541Z,38.6
2018-10-06T13:07:54.943Z,39.6
2018-10-06T13:08:56.516Z,39.1
2018-10-06T13:09:58.061Z,38.6
2018-10-06T13:10:59.460Z,39.1
2018-10-06T13:12:01.651Z,38.6
2018-10-06T13:13:03.603Z,38.1
2018-10-06T13:14:05.198Z,38.1
2018-10-06T13:15:06.774Z,37.6
2018-10-06T13:16:08.321Z,39.1
2018-10-06T13:17:09.879Z,38.1
2018-10-06T13:18:11.293Z,38.1
2018-10-06T13:19:12.887Z,38.6
2018-10-06T13:20:14.448Z,38.6
2018-10-06T13:21:15.993Z,39.1
2018-10-06T13:22:17.394Z,38.6
2018-10-06T13:23:18.967Z,38.6
2018-10-06T13:24:20.384Z,39.1
2018-10-06T13:25:21.963Z,38.6
2018-10-06T13:26:23.349Z,38.6
2018-10-06T13:27:24.737Z,37.6
2018-10-06T13:28:26.282Z,38.1
2018-10-06T13:29:27.824Z,38.6
2018-10-06T13:30:29.398Z,38.6
2018-10-06T13:31:30.912Z,38.6
2018-10-06T13:32:32.575Z,37.6
2018-10-06T13:33:34.133Z,39.1
2018-10-06T13:34:35.688Z,38.1
2018-10-06T13:35:37.234Z,38.1
2018-10-06T13:36:38.639Z,37.6
2018-10-06T13:37:40.220Z,38.6
2018-10-06T13:38:41.793Z,38.6